Standort: A- 4920 Schildorn, St. Kollmann 6
Position: Ost 1327'49" Nord 4807'14" 563 m Seehhe
Werte der letzten 24 Stunden
Wetterdaten: aktuell Samstag, 25.09.2021 02:25
Datum Zeit Temp. A. Feuchte A. Luftdruck Regen Sonnenschein UV Solar
25.09.2021 02:25 13,3 C 83 % 1017,0 hPa 0,0 l/m 0 min 0,0 UV-I 0 W/m
25.09.2021 01:25 13,7 C 83 % 1017,1 hPa 0,0 l/m 0 min 0,0 UV-I 0 W/m
25.09.2021 00:25 12,7 C 85 % 1017,3 hPa 0,0 l/m 0 min 0,0 UV-I 0 W/m
24.09.2021 23:25 12,9 C 85 % 1017,2 hPa 0,0 l/m 0 min 0,0 UV-I 0 W/m
24.09.2021 22:25 12,9 C 84 % 1017,1 hPa 0,0 l/m 0 min 0,0 UV-I 0 W/m
24.09.2021 21:25 13,5 C 83 % 1016,6 hPa 0,0 l/m 0 min 0,0 UV-I 0 W/m
24.09.2021 20:25 13,8 C 82 % 1016,3 hPa 0,0 l/m 0 min 0,0 UV-I 0 W/m
24.09.2021 19:25 14,6 C 81 % 1015,9 hPa 0,0 l/m 2 min 0,0 UV-I 0 W/m
24.09.2021 18:25 19,1 C 66 % 1015,7 hPa 0,0 l/m 22 min 0,0 UV-I 25 W/m
24.09.2021 17:25 19,8 C 63 % 1015,6 hPa 0,0 l/m 60 min 0,0 UV-I 171 W/m
24.09.2021 16:25 20,1 C 61 % 1015,7 hPa 0,0 l/m 60 min 0,6 UV-I 327 W/m
24.09.2021 15:25 19,8 C 60 % 1016,1 hPa 0,0 l/m 60 min 1,9 UV-I 462 W/m
24.09.2021 14:25 19,3 C 61 % 1016,4 hPa 0,0 l/m 60 min 3,2 UV-I 559 W/m
24.09.2021 13:25 18,6 C 63 % 1016,8 hPa 0,0 l/m 58 min 3,9 UV-I 615 W/m
24.09.2021 12:25 17,5 C 69 % 1017,3 hPa 0,0 l/m 52 min 3,5 UV-I 684 W/m
24.09.2021 11:25 16,3 C 73 % 1017,6 hPa 0,0 l/m 17 min 3,2 UV-I 250 W/m
24.09.2021 10:25 16,1 C 74 % 1017,8 hPa 0,0 l/m 60 min 2,0 UV-I 684 W/m
24.09.2021 09:25 14,8 C 77 % 1017,3 hPa 0,0 l/m 59 min 0,7 UV-I 354 W/m
24.09.2021 08:25 14,0 C 79 % 1017,3 hPa 0,0 l/m 31 min 0,0 UV-I 181 W/m
24.09.2021 07:25 13,4 C 80 % 1016,7 hPa 0,0 l/m 0 min 0,0 UV-I 24 W/m
24.09.2021 06:25 13,8 C 77 % 1016,2 hPa 0,0 l/m 0 min 0,0 UV-I 0 W/m
24.09.2021 05:25 13,9 C 76 % 1016,3 hPa 0,0 l/m 0 min 0,0 UV-I 0 W/m
24.09.2021 04:25 14,4 C 74 % 1016,3 hPa 0,0 l/m 0 min 0,0 UV-I 0 W/m
24.09.2021 03:25 14,5 C 74 % 1016,3 hPa 0,0 l/m 0 min 0,0 UV-I 0 W/m
24.09.2021 03:00 14,6 C 73 % 1016,6 hPa 0,0 l/m 0 min 0,0 UV-I 0 W/m
_ Min-Zeit 00:24 14:56 17:10 - - - -
Minimum _ 12,7 C 59 % 1015,5 hPa - - - -
_ Max-Zeit 16:13 22:28 10:10 03:00 07:50 12:27 11:54
Maximum _ 20,1 C 85 % 1017,8 hPa 0,0 l/m 1 min 4,0 UV-I 722 W/m
Durchschnitt _ 15,5 C 74 % 1016,6 hPa #0,0 l/m #0 min. 0,0 UV-I 0 W/m
Daten ab 1. Mai 2002 - die Jahresstatistiken sind aber falsch (grere Aufzeichnungslcken)